Time;durP1;ratioP1;P1;durP2;ratioP2;P2;SDS_P1;SDS_P2;PMS_P1;PMS_P2;Temp;Humidity;BMP_temperature;BMP_pressure;BME280_temperature;BME280_humidity;BME280_pressure;Samples;Min_cycle;Max_cycle;Signal;HPM_P1;HPM_P2
2022/08/30 00:01:24;;;;;;;17.20;12.68;;;;;;;18.83;100.00;99326.70;1683950;84;21320;-70
2022/08/30 00:03:51;;;;;;;14.63;12.23;;;;;;;18.82;100.00;99326.34;1683936;84;21089;-70
2022/08/30 00:06:18;;;;;;;15.78;12.58;;;;;;;18.81;100.00;99323.34;1683988;85;20864;-69
2022/08/30 00:08:47;;;;;;;12.85;11.53;;;;;;;18.79;100.00;99327.89;1683985;85;21022;-70
2022/08/30 00:11:18;;;;;;;13.03;11.78;;;;;;;18.77;100.00;99332.47;1684026;85;21550;-71
2022/08/30 00:13:44;;;;;;;14.18;12.28;;;;;;;18.74;100.00;99324.80;1656609;85;21236;-69
2022/08/30 00:16:13;;;;;;;13.55;11.48;;;;;;;18.73;100.00;99327.55;1683991;85;21010;-69
2022/08/30 00:18:40;;;;;;;20.90;13.40;;;;;;;18.70;100.00;99329.94;1684032;85;21109;-69
2022/08/30 00:21:09;;;;;;;17.00;12.13;;;;;;;18.70;100.00;99335.21;1684088;84;21010;-69
2022/08/30 00:23:37;;;;;;;14.98;12.25;;;;;;;18.71;100.00;99335.58;1684004;84;20995;-69
2022/08/30 00:26:03;;;;;;;16.20;12.53;;;;;;;18.73;100.00;99334.14;1684178;84;21117;-69
2022/08/30 00:28:31;;;;;;;15.13;13.13;;;;;;;18.75;100.00;99337.50;1683964;84;21145;-69
2022/08/30 00:30:57;;;;;;;16.35;13.88;;;;;;;18.76;100.00;99340.49;1684279;85;20983;-69
2022/08/30 00:33:24;;;;;;;18.32;14.00;;;;;;;18.79;100.00;99348.14;1684024;84;21053;-69
2022/08/30 00:35:50;;;;;;;14.13;12.73;;;;;;;18.81;100.00;99351.02;1684243;84;21598;-69
2022/08/30 00:38:18;;;;;;;15.75;13.50;;;;;;;18.86;100.00;99358.09;1683994;85;21524;-70
2022/08/30 00:40:45;;;;;;;15.95;14.15;;;;;;;18.90;100.00;99356.06;1684212;85;21087;-69
2022/08/30 00:43:17;;;;;;;16.07;14.25;;;;;;;18.94;100.00;99360.15;1683964;85;21074;-69
2022/08/30 00:45:43;;;;;;;18.90;14.83;;;;;;;18.97;100.00;99352.02;1684256;84;21018;-69
2022/08/30 00:48:12;;;;;;;18.45;13.68;;;;;;;19.01;100.00;99353.91;1684075;84;21225;-69
2022/08/30 00:50:46;;;;;;;13.58;12.18;;;;;;;19.03;100.00;99358.09;1683999;85;21180;-69
2022/08/30 00:53:23;;;;;;;17.23;13.03;;;;;;;19.07;100.00;99358.70;1656452;85;21011;-69
2022/08/30 00:55:50;;;;;;;15.15;12.63;;;;;;;19.07;100.00;99360.02;1684228;85;21010;-69
2022/08/30 00:58:20;;;;;;;17.65;14.00;;;;;;;19.07;100.00;99366.61;1678927;85;21011;-69
2022/08/30 01:00:49;;;;;;;15.13;13.65;;;;;;;19.05;100.00;99365.41;1657036;85;21007;-69
2022/08/30 01:03:17;;;;;;;17.95;13.00;;;;;;;19.05;100.00;99365.41;1673772;85;22701;-69
2022/08/30 01:05:44;;;;;;;17.17;13.72;;;;;;;19.04;100.00;99363.73;1676323;85;21049;-69
2022/08/30 01:08:11;;;;;;;15.83;14.07;;;;;;;19.06;100.00;99373.68;1656735;85;21114;-69
2022/08/30 01:10:38;;;;;;;15.68;14.07;;;;;;;19.07;100.00;99370.09;1676345;85;21004;-69
2022/08/30 01:13:05;;;;;;;16.97;14.58;;;;;;;19.08;100.00;99367.81;1676310;85;20975;-69
2022/08/30 01:15:32;;;;;;;17.45;13.00;;;;;;;19.13;100.00;99375.37;1676358;85;21138;-69
2022/08/30 01:17:58;;;;;;;14.87;13.28;;;;;;;19.14;100.00;99371.78;1656783;85;21460;-69
2022/08/30 01:20:36;;;;;;;14.73;13.25;;;;;;;19.16;100.00;99373.34;1656723;85;21086;-69
2022/08/30 01:23:11;;;;;;;16.55;14.13;;;;;;;19.17;100.00;99371.06;1676378;85;20994;-69
2022/08/30 01:25:37;;;;;;;16.02;14.30;;;;;;;19.19;100.00;99365.16;1676367;85;20967;-69
2022/08/30 01:28:06;;;;;;;15.68;13.68;;;;;;;19.23;100.00;99361.33;1676328;85;21120;-69
2022/08/30 01:30:33;;;;;;;17.67;13.95;;;;;;;19.28;100.00;99353.91;1656734;85;21019;-69
2022/08/30 01:33:02;;;;;;;15.65;14.07;;;;;;;19.33;100.00;99345.64;1676355;85;20995;-69
2022/08/30 01:35:58;;;;;;;16.80;14.25;;;;;;;19.38;100.00;99351.39;1676371;85;20979;-69
2022/08/30 01:38:29;;;;;;;15.30;13.65;;;;;;;19.40;100.00;99356.52;1656859;85;21074;-68
2022/08/30 01:41:23;;;;;;;15.38;13.85;;;;;;;19.43;100.00;99349.69;1653217;85;21772;-69
2022/08/30 01:43:50;;;;;;;;;;;;;;;19.44;100.00;99340.33;1678746;85;21016;-69
2022/08/30 01:46:18;;;;;;;15.70;14.18;;;;;;;19.45;100.00;99344.65;1654851;86;20158;-69
2022/08/30 01:48:46;;;;;;;15.85;14.18;;;;;;;19.43;100.00;99350.52;1654886;86;21043;-69
2022/08/30 01:51:13;;;;;;;15.50;13.90;;;;;;;19.43;100.00;99344.41;1654858;86;21029;-71
2022/08/30 01:53:41;;;;;;;15.03;13.28;;;;;;;19.41;100.00;99345.01;1654977;86;21975;-68
2022/08/30 01:56:09;;;;;;;14.90;13.48;;;;;;;19.41;100.00;99343.69;1710419;84;20980;-69
2022/08/30 01:58:36;;;;;;;15.55;14.05;;;;;;;19.40;100.00;99345.48;1698350;83;20973;-69
2022/08/30 02:01:04;;;;;;;17.57;14.53;;;;;;;19.38;100.00;99347.91;1691888;84;21043;-68
2022/08/30 02:03:33;;;;;;;18.57;16.55;;;;;;;19.36;100.00;99347.20;1664582;84;21068;-69
2022/08/30 02:06:05;;;;;;;16.90;15.28;;;;;;;19.35;100.00;99349.47;1691879;84;21131;-69
2022/08/30 02:08:32;;;;;;;16.93;15.18;;;;;;;19.35;100.00;99350.80;1692003;84;21017;-69
2022/08/30 02:10:59;;;;;;;18.02;15.38;;;;;;;19.35;100.00;99343.72;1691880;84;21016;-69
2022/08/30 02:13:26;;;;;;;17.67;15.18;;;;;;;19.37;100.00;99347.55;1691826;84;21546;-69
2022/08/30 02:15:54;;;;;;;15.40;13.90;;;;;;;19.38;100.00;99354.51;1692060;84;21525;-69
2022/08/30 02:18:23;;;;;;;14.45;13.03;;;;;;;19.38;100.00;99353.19;1691811;84;21246;-70
2022/08/30 02:20:49;;;;;;;13.95;12.65;;;;;;;19.35;100.00;99358.22;1691881;83;21013;-69
2022/08/30 02:23:16;;;;;;;15.60;13.40;;;;;;;19.33;100.00;99359.30;1691795;84;21016;-69
2022/08/30 02:25:43;;;;;;;14.90;13.50;;;;;;;19.30;100.00;99356.42;1691847;83;21516;-69
2022/08/30 02:28:10;;;;;;;14.93;13.55;;;;;;;19.28;100.00;99359.18;1691841;84;20961;-70
2022/08/30 02:30:37;;;;;;;15.68;14.07;;;;;;;19.26;100.00;99361.09;1691859;83;21860;-69
2022/08/30 02:33:04;;;;;;;13.00;11.70;;;;;;;19.25;100.00;99364.69;1691732;84;21114;-70
2022/08/30 02:35:30;;;;;;;14.68;13.08;;;;;;;19.24;100.00;99367.44;1691886;83;20988;-70
2022/08/30 02:37:57;;;;;;;15.72;13.83;;;;;;;19.21;100.00;99378.23;1691817;83;20976;-70
2022/08/30 02:40:23;;;;;;;18.25;14.35;;;;;;;19.20;100.00;99372.59;1691920;83;21021;-70
2022/08/30 02:42:50;;;;;;;14.80;13.38;;;;;;;19.17;100.00;99380.30;1691845;84;21205;-70
2022/08/30 02:45:17;;;;;;;14.10;12.60;;;;;;;19.16;100.00;99379.93;1691727;84;21012;-71
2022/08/30 02:47:43;;;;;;;12.68;11.55;;;;;;;19.14;100.00;99379.20;1691758;84;21013;-71
2022/08/30 02:50:11;;;;;;;14.40;12.88;;;;;;;19.15;100.00;99374.78;1691891;84;21013;-70
2022/08/30 02:52:38;;;;;;;14.95;13.60;;;;;;;19.13;100.00;99378.84;1691886;84;20961;-71
2022/08/30 02:55:06;;;;;;;16.07;12.78;;;;;;;19.12;100.00;99382.44;1691848;84;21199;-70
2022/08/30 02:57:32;;;;;;;13.72;12.37;;;;;;;19.12;100.00;99385.08;1691653;83;21537;-71
2022/08/30 03:00:00;;;;;;;15.40;12.65;;;;;;;19.13;100.00;99381.96;1691853;84;20965;-71
2022/08/30 03:02:27;;;;;;;15.10;13.53;;;;;;;19.14;100.00;99383.64;1691868;84;21135;-69
2022/08/30 03:04:53;;;;;;;15.55;13.80;;;;;;;19.15;100.00;99385.32;1691776;84;21044;-70
2022/08/30 03:07:20;;;;;;;15.50;13.93;;;;;;;19.14;100.00;99380.52;1691890;84;21555;-70
2022/08/30 03:09:46;;;;;;;14.28;12.88;;;;;;;19.13;100.00;99386.75;1691736;84;21426;-70
2022/08/30 03:12:13;;;;;;;15.23;13.40;;;;;;;19.12;100.00;99384.23;1691823;84;21060;-70
2022/08/30 03:14:39;;;;;;;14.78;13.48;;;;;;;19.10;100.00;99394.06;1664230;84;20989;-70
2022/08/30 03:17:07;;;;;;;16.27;14.10;;;;;;;19.04;100.00;99396.68;1691833;84;20997;-70
2022/08/30 03:19:35;;;;;;;14.18;12.28;;;;;;;19.00;100.00;99403.14;1691828;84;21561;-71
2022/08/30 03:22:05;;;;;;;16.30;14.07;;;;;;;18.95;100.00;99402.68;1691724;84;21057;-71
2022/08/30 03:24:33;;;;;;;15.15;13.85;;;;;;;18.91;100.00;99400.75;1691772;84;21004;-71
2022/08/30 03:26:59;;;;;;;15.83;14.28;;;;;;;18.91;100.00;99409.14;1691796;84;21453;-71
2022/08/30 03:29:28;;;;;;;17.37;15.38;;;;;;;18.90;100.00;99410.09;1691885;84;21072;-71
2022/08/30 03:31:57;;;;;;;16.70;14.58;;;;;;;18.88;100.00;99409.37;1691803;83;21538;-71
2022/08/30 03:34:24;;;;;;;14.28;12.78;;;;;;;18.88;100.00;99414.16;1691778;84;21512;-71
2022/08/30 03:36:52;;;;;;;16.75;13.75;;;;;;;18.90;100.00;99418.00;1691794;84;21067;-71
2022/08/30 03:39:19;;;;;;;15.72;14.23;;;;;;;18.90;100.00;99421.95;1691823;84;21021;-71
2022/08/30 03:41:45;;;;;;;18.30;14.85;;;;;;;18.91;100.00;99427.11;1691769;84;21009;-69
2022/08/30 03:44:12;;;;;;;16.70;13.68;;;;;;;18.94;100.00;99427.36;1691838;84;21618;-72
2022/08/30 03:46:39;;;;;;;14.87;12.45;;;;;;;19.00;100.00;99418.95;1691784;83;20949;-69
2022/08/30 03:49:07;;;;;;;15.00;13.32;;;;;;;19.09;100.00;99424.85;1691788;84;21016;-69
2022/08/30 03:51:34;;;;;;;14.78;13.35;;;;;;;19.15;100.00;99428.34;1691767;84;21027;-71
2022/08/30 03:54:01;;;;;;;15.98;14.38;;;;;;;19.21;100.00;99434.91;1691808;84;21547;-71
2022/08/30 03:56:28;;;;;;;15.40;13.80;;;;;;;19.32;100.00;99434.94;1691733;83;21209;-71
2022/08/30 03:58:54;;;;;;;15.15;12.75;;;;;;;19.44;100.00;99437.09;1706147;83;21007;-71
2022/08/30 04:01:21;;;;;;;14.25;12.80;;;;;;;19.59;100.00;99436.74;1718800;83;21086;-71
2022/08/30 04:03:47;;;;;;;15.28;13.72;;;;;;;19.74;100.00;99435.19;1718862;83;20976;-77
2022/08/30 04:06:14;;;;;;;14.98;13.48;;;;;;;19.88;100.00;99434.91;1718852;83;21493;-77
2022/08/30 04:08:40;;;;;;;15.08;13.68;;;;;;;20.01;100.00;99434.27;1718815;83;21126;-77
2022/08/30 04:11:07;;;;;;;13.83;12.45;;;;;;;20.12;100.00;99436.90;1718743;83;20961;-77
2022/08/30 04:13:34;;;;;;;13.22;11.95;;;;;;;20.23;100.00;99432.89;1718828;83;21019;-77
2022/08/30 04:16:01;;;;;;;13.30;12.15;;;;;;;20.26;100.00;99433.96;1718787;83;21349;-77
2022/08/30 04:18:28;;;;;;;15.15;13.65;;;;;;;20.23;100.00;99430.25;1718913;83;20960;-71
2022/08/30 04:20:55;;;;;;;15.32;12.78;;;;;;;20.30;100.00;99430.11;1718819;83;21140;-71
2022/08/30 04:23:21;;;;;;;13.58;12.03;;;;;;;20.54;100.00;99429.09;1718639;83;21562;-72
2022/08/30 04:25:50;;;;;;;12.93;11.53;;;;;;;20.81;99.96;99431.20;1718956;82;21076;-71
2022/08/30 04:28:16;;;;;;;13.00;11.70;;;;;;;21.03;97.89;99427.09;1718783;83;20975;-71
2022/08/30 04:30:44;;;;;;;15.83;11.57;;;;;;;21.20;96.17;99424.36;1719194;83;21099;-72
2022/08/30 04:33:12;;;;;;;11.65;10.55;;;;;;;21.36;94.72;99426.55;1718886;83;21532;-72
2022/08/30 04:35:44;;;;;;;13.78;11.57;;;;;;;21.56;93.63;99434.91;1718758;83;20964;-71
2022/08/30 04:38:12;;;;;;;12.75;11.43;;;;;;;21.76;91.46;99435.33;1718515;83;21047;-71
2022/08/30 04:40:43;;;;;;;12.82;10.72;;;;;;;21.88;89.90;99450.59;1718801;83;21020;-71
2022/08/30 04:43:11;;;;;;;10.58;9.35;;;;;;;22.01;89.35;99445.91;1718259;83;21000;-71
2022/08/30 04:45:38;;;;;;;12.78;10.50;;;;;;;22.15;88.14;99443.38;1718908;83;21139;-71
2022/08/30 04:48:06;;;;;;;11.15;9.95;;;;;;;22.28;86.23;99450.07;1718727;83;21035;-72
2022/08/30 04:50:33;;;;;;;12.30;10.68;;;;;;;22.36;85.24;99449.88;1718829;83;21011;-72
2022/08/30 04:52:59;;;;;;;11.08;9.95;;;;;;;22.42;84.55;99451.95;1718955;83;21012;-71
2022/08/30 04:55:26;;;;;;;11.80;10.53;;;;;;;22.50;84.21;99443.66;1718911;83;21444;-72
2022/08/30 04:57:53;;;;;;;14.53;10.13;;;;;;;22.62;83.77;99453.13;1718939;83;21269;-71
2022/08/30 05:00:20;;;;;;;10.65;9.55;;;;;;;22.79;82.20;99454.75;1691626;83;20962;-71
2022/08/30 05:02:47;;;;;;;11.90;10.70;;;;;;;22.88;81.32;99452.10;1690435;84;21048;-72
2022/08/30 05:07:59;;;;;;;16.73;9.05;;;;;;;22.84;80.46;99455.17;1691289;84;21012;-72
2022/08/30 05:10:26;;;;;;;11.10;9.35;;;;;;;22.83;80.23;99457.48;1691119;83;21816;-73
2022/08/30 05:12:53;;;;;;;10.60;9.45;;;;;;;22.80;80.07;99460.41;1690188;84;21012;-72
2022/08/30 05:15:21;;;;;;;10.55;9.50;;;;;;;22.74;79.71;99453.84;1689483;84;21036;-72
2022/08/30 05:17:47;;;;;;;9.93;9.03;;;;;;;22.65;80.19;99456.00;1689301;83;21060;-72
2022/08/30 05:20:14;;;;;;;12.82;9.38;;;;;;;22.61;79.98;99454.11;1690275;84;21509;-72
2022/08/30 05:22:48;;;;;;;10.80;8.08;;;;;;;22.58;80.42;99457.55;1689839;84;21550;-72
2022/08/30 05:25:10;;;;;;;7.70;7.00;;;;;;;22.57;80.20;99451.91;1689086;84;21056;-73
2022/08/30 05:27:39;;;;;;;9.65;8.65;;;;;;;22.53;79.49;99448.69;1691178;84;20980;-72
2022/08/30 05:30:07;;;;;;;9.05;7.97;;;;;;;22.47;79.88;99455.87;1691255;84;21484;-72
2022/08/30 05:32:34;;;;;;;8.85;7.87;;;;;;;22.40;80.32;99440.16;1663850;84;21448;-72
2022/08/30 05:35:01;;;;;;;10.82;7.75;;;;;;;22.36;80.07;99452.05;1691495;84;21226;-71
2022/08/30 05:37:27;;;;;;;8.78;7.87;;;;;;;22.32;80.45;99446.66;1691554;84;20997;-72
2022/08/30 05:39:53;;;;;;;8.20;7.47;;;;;;;22.33;80.29;99453.64;1691790;84;21500;-72
2022/08/30 05:42:21;;;;;;;7.78;6.40;;;;;;;22.31;79.88;99453.77;1695144;83;47981;-70
2022/08/30 05:44:51;;;;;;;7.33;6.72;;;;;;;22.28;79.12;99457.18;1725437;83;21632;-71
2022/08/30 05:47:18;;;;;;;9.00;6.60;;;;;;;22.24;78.79;99458.42;1725312;83;21199;-70
2022/08/30 05:49:46;;;;;;;7.40;6.70;;;;;;;22.22;79.25;99454.59;1721843;83;21518;-71
2022/08/30 05:52:16;;;;;;;8.15;6.37;;;;;;;22.25;78.89;99449.02;1720233;83;21150;-71
2022/08/30 05:54:44;;;;;;;7.10;6.40;;;;;;;22.30;78.66;99462.70;1722219;83;21065;-71
2022/08/30 05:57:10;;;;;;;6.62;6.03;;;;;;;22.32;77.69;99459.91;1722130;83;21546;-72
2022/08/30 05:59:38;;;;;;;6.90;6.20;;;;;;;22.28;77.15;99460.67;1728208;82;21254;-71
2022/08/30 06:31:56;;;;;;;5.72;4.90;;;;;;;22.62;73.84;99475.67;1725475;81;22218;-71
2022/08/30 06:34:24;;;;;;;7.22;6.00;;;;;;;22.67;71.80;99468.63;1724588;83;21053;-71
2022/08/30 06:36:52;;;;;;;5.22;4.72;;;;;;;22.66;71.77;99470.44;1724755;83;21041;-70
2022/08/30 06:39:22;;;;;;;5.47;4.97;;;;;;;22.71;71.05;99464.73;1724899;83;21029;-71
2022/08/30 06:41:49;;;;;;;5.00;4.50;;;;;;;22.78;70.97;99470.34;1722524;83;21193;-71
2022/08/30 06:44:18;;;;;;;4.72;4.33;;;;;;;22.82;70.83;99467.25;1724011;82;21521;-72
2022/08/30 06:46:44;;;;;;;7.50;4.33;;;;;;;22.87;70.31;99478.27;1726428;82;20982;-71
2022/08/30 06:49:16;;;;;;;6.80;4.60;;;;;;;22.90;69.50;99470.53;1709125;83;21077;-73
2022/08/30 06:51:43;;;;;;;5.05;4.65;;;;;;;22.97;69.06;99481.77;1725465;83;21132;-72
2022/08/30 06:54:11;;;;;;;7.05;4.28;;;;;;;23.02;67.68;99473.36;1726855;83;21182;-72
2022/08/30 06:56:41;;;;;;;4.37;3.85;;;;;;;23.06;66.20;99468.61;1724998;81;21158;-72
2022/08/30 06:59:08;;;;;;;5.87;3.20;;;;;;;23.08;64.59;99475.45;1730605;81;20978;-74
2022/08/30 07:01:37;;;;;;;5.78;3.45;;;;;;;23.08;62.83;99479.92;1736370;81;21058;-73
2022/08/30 07:04:04;;;;;;;4.53;3.70;;;;;;;23.09;62.41;99484.25;1737461;81;21049;-72
2022/08/30 07:06:32;;;;;;;4.95;3.17;;;;;;;23.09;62.08;99470.98;1735293;82;21050;-72
2022/08/30 07:09:01;;;;;;;5.67;3.35;;;;;;;23.09;61.80;99474.96;1709165;82;21260;-70
2022/08/30 07:11:35;;;;;;;4.03;3.10;;;;;;;23.12;61.10;99479.98;1733767;81;21573;-71
2022/08/30 07:14:08;;;;;;;5.25;3.42;;;;;;;23.15;60.52;99480.54;1733449;82;21054;-73
2022/08/30 07:16:39;;;;;;;6.58;3.22;;;;;;;23.20;59.63;99486.72;1733262;82;21092;-73
2022/08/30 07:19:06;;;;;;;7.08;3.85;;;;;;;23.24;60.13;99480.99;1733228;82;21052;-71
2022/08/30 07:21:38;;;;;;;5.45;3.47;;;;;;;23.31;60.79;99478.12;1733870;81;21599;-71
2022/08/30 07:24:06;;;;;;;6.75;3.05;;;;;;;23.42;58.39;99477.58;1734596;82;21458;-71
2022/08/30 07:26:36;;;;;;;3.62;3.30;;;;;;;23.48;57.74;99478.34;1735089;82;21038;-71
2022/08/30 07:29:03;;;;;;;7.00;3.37;;;;;;;23.49;57.79;99474.22;1735330;82;21037;-72
2022/08/30 07:31:31;;;;;;;3.90;2.98;;;;;;;23.54;58.42;99469.84;1735123;82;21011;-72
2022/08/30 07:33:59;;;;;;;6.03;3.70;;;;;;;23.59;56.72;99483.48;1735168;82;22035;-72
2022/08/30 07:36:27;;;;;;;6.28;3.37;;;;;;;23.61;58.24;99470.41;1708212;82;21049;-72
2022/08/30 07:38:58;;;;;;;7.10;3.90;;;;;;;23.68;56.70;99468.02;1735150;82;21026;-71
2022/08/30 07:41:34;;;;;;;7.62;3.62;;;;;;;23.72;56.37;99470.73;1734913;82;21618;-71
2022/08/30 07:44:02;;;;;;;5.75;3.45;;;;;;;23.75;55.55;99466.95;1735274;82;21041;-71
2022/08/30 07:46:29;;;;;;;4.72;3.62;;;;;;;23.80;55.29;99472.14;1734880;82;21145;-71
2022/08/30 07:48:57;;;;;;;5.33;3.85;;;;;;;23.86;55.15;99477.36;1734991;82;22255;-72
2022/08/30 07:51:25;;;;;;;4.83;3.60;;;;;;;23.90;54.76;99480.08;1734693;82;21017;-72
2022/08/30 07:53:52;;;;;;;4.35;3.33;;;;;;;23.91;54.49;99482.59;1735161;82;21030;-72
2022/08/30 07:56:19;;;;;;;3.92;3.25;;;;;;;23.92;54.21;99472.80;1734909;82;21089;-71
2022/08/30 07:58:47;;;;;;;4.22;3.02;;;;;;;23.93;54.36;99476.63;1734874;82;22138;-72
2022/08/30 08:01:14;;;;;;;4.95;3.10;;;;;;;23.97;53.71;99484.66;1735241;82;20990;-71
2022/08/30 08:03:42;;;;;;;5.40;2.90;;;;;;;24.03;53.38;99484.04;1734923;82;21393;-71
2022/08/30 08:06:13;;;;;;;4.42;3.12;;;;;;;24.09;53.06;99492.41;1734974;82;21435;-72
2022/08/30 08:08:41;;;;;;;7.22;3.05;;;;;;;24.15;53.36;99489.16;1735312;82;21073;-72
2022/08/30 08:11:16;;;;;;;4.03;3.00;;;;;;;24.22;52.61;99490.22;1735214;82;21257;-70
2022/08/30 08:13:48;;;;;;;4.42;2.80;;;;;;;24.24;52.13;99490.45;1734999;82;21042;-70
2022/08/30 08:16:16;;;;;;;9.03;3.90;;;;;;;24.30;51.98;99496.99;1709168;82;21093;-71
2022/08/30 08:18:44;;;;;;;6.97;3.65;;;;;;;24.36;52.62;99489.76;1736287;81;21556;-72
2022/08/30 08:21:11;;;;;;;6.35;3.42;;;;;;;24.43;52.88;99484.16;1719058;82;21153;-72
2022/08/30 08:23:38;;;;;;;5.45;3.40;;;;;;;24.50;52.59;99484.40;1742761;81;21214;-72
2022/08/30 08:26:07;;;;;;;5.05;3.25;;;;;;;24.55;52.28;99488.77;1732522;82;21089;-72
2022/08/30 08:28:34;;;;;;;5.55;3.60;;;;;;;24.58;52.48;99491.94;1740115;81;21025;-71
2022/08/30 08:31:02;;;;;;;6.85;3.40;;;;;;;24.64;52.57;99499.81;1703930;84;21056;-76
2022/08/30 08:33:29;;;;;;;8.93;3.00;;;;;;;24.71;52.59;99499.06;1703413;83;21039;-71
2022/08/30 08:35:56;;;;;;;5.10;3.50;;;;;;;24.78;52.01;99483.30;1742070;82;21738;-72
2022/08/30 08:38:23;;;;;;;7.28;4.35;;;;;;;24.85;52.21;99484.86;1703464;83;21074;-71
2022/08/30 08:41:31;;;;;;;5.85;2.92;;;;;;;24.94;52.62;99485.28;1742053;82;21037;-71
2022/08/30 08:43:58;;;;;;;4.15;3.10;;;;;;;25.06;51.09;99487.56;1703809;84;21611;-72
2022/08/30 08:46:33;;;;;;;3.40;3.05;;;;;;;25.17;50.06;99480.33;1714445;82;21564;-72
2022/08/30 08:49:05;;;;;;;5.45;3.37;;;;;;;25.20;49.71;99476.83;1742005;82;21124;-71
2022/08/30 08:54:41;;;;;;;3.47;2.62;;;;;;;25.27;49.33;99480.55;1741342;82;21037;-71
2022/08/30 08:57:09;;;;;;;8.45;3.22;;;;;;;25.31;47.79;99476.59;1703959;83;21043;-71
2022/08/30 08:59:37;;;;;;;4.78;3.08;;;;;;;25.29;47.90;99475.91;1701508;83;21914;-71
2022/08/30 09:02:29;;;;;;;5.70;3.10;;;;;;;25.33;48.42;99476.44;1692478;84;21121;-71
2022/08/30 09:04:59;;;;;;;6.00;3.08;;;;;;;25.31;48.29;99472.59;1686467;85;21566;-70
2022/08/30 09:07:29;;;;;;;7.97;3.30;;;;;;;25.31;48.03;99464.61;1686135;85;21140;-70
2022/08/30 09:09:58;;;;;;;5.50;3.05;;;;;;;25.35;48.33;99473.12;1686651;84;21500;-70
2022/08/30 09:12:26;;;;;;;7.33;2.98;;;;;;;25.39;44.91;99472.63;1686419;85;21554;-71
2022/08/30 09:14:57;;;;;;;4.15;3.00;;;;;;;25.41;45.77;99472.47;1662356;84;21381;-70
2022/08/30 09:17:26;;;;;;;3.87;3.13;;;;;;;25.43;47.22;99470.48;1662557;86;21067;-70
2022/08/30 09:19:58;;;;;;;4.25;3.37;;;;;;;25.45;48.08;99471.66;1663344;86;21013;-70
2022/08/30 09:22:37;;;;;;;7.33;2.85;;;;;;;25.50;47.88;99470.70;1663077;84;21103;-72
2022/08/30 09:25:13;;;;;;;3.33;2.90;;;;;;;25.56;47.15;99468.73;1663041;86;21105;-71
2022/08/30 09:27:47;;;;;;;7.78;3.15;;;;;;;25.65;46.11;99475.79;1662905;86;21600;-71
2022/08/30 09:30:26;;;;;;;5.45;2.95;;;;;;;25.67;45.44;99469.31;1663017;86;21306;-71
2022/08/30 09:32:59;;;;;;;4.92;3.12;;;;;;;25.68;46.51;99470.14;1663155;84;21030;-71
2022/08/30 09:35:40;;;;;;;3.52;3.17;;;;;;;25.69;46.46;99473.15;1663134;86;21560;-71
2022/08/30 09:38:22;;;;;;;4.55;3.17;;;;;;;25.71;47.17;99471.16;1662750;86;20945;-71
2022/08/30 09:40:57;;;;;;;8.83;3.27;;;;;;;25.70;47.34;99462.33;1660102;86;21307;-70
2022/08/30 09:43:29;;;;;;;5.20;3.45;;;;;;;25.78;47.86;99462.05;1662719;86;21544;-71
2022/08/30 09:46:07;;;;;;;6.05;3.02;;;;;;;25.88;47.80;99469.39;1662838;86;21072;-72
2022/08/30 09:48:43;;;;;;;5.10;3.42;;;;;;;26.00;47.83;99462.76;1662814;86;21061;-70
2022/08/30 09:51:21;;;;;;;4.00;3.30;;;;;;;26.12;46.75;99468.64;1663171;86;20960;-70
2022/08/30 09:54:25;;;;;;;4.25;3.37;;;;;;;26.17;46.49;99455.66;1662648;86;21908;-70
2022/08/30 09:57:10;;;;;;;7.10;3.37;;;;;;;26.17;46.72;99444.50;1659876;86;21096;-72
2022/08/30 10:00:02;;;;;;;5.20;3.47;;;;;;;26.23;46.26;99442.49;1661617;85;21049;-70
2022/08/30 10:03:08;;;;;;;4.50;3.12;;;;;;;26.29;46.44;99446.34;1683965;85;21536;-71
2022/08/30 10:05:42;;;;;;;9.58;3.12;;;;;;;26.32;45.70;99439.38;1684192;85;21066;-71
2022/08/30 10:08:32;;;;;;;9.63;3.45;;;;;;;26.31;45.56;99439.88;1685117;85;21872;-71
2022/08/30 10:11:47;;;;;;;3.42;3.10;;;;;;;26.34;45.81;99434.72;1683898;84;21570;-70
2022/08/30 10:14:19;;;;;;;5.03;3.40;;;;;;;26.41;45.86;99440.55;1684007;85;21102;-71
2022/08/30 10:17:16;;;;;;;3.55;3.25;;;;;;;26.46;45.08;99433.39;1692629;84;21506;-71
2022/08/30 10:20:04;;;;;;;5.58;3.12;;;;;;;26.45;44.87;99438.39;1695038;84;21033;-71
2022/08/30 10:22:45;;;;;;;6.00;3.77;;;;;;;26.45;45.15;99440.22;1695029;84;22117;-71
2022/08/30 10:25:29;;;;;;;6.45;3.52;;;;;;;26.47;45.56;99431.56;1691816;84;21097;-71
2022/08/30 10:28:19;;;;;;;4.03;3.50;;;;;;;26.54;45.34;99427.23;1695198;84;21061;-71
2022/08/30 10:30:57;;;;;;;7.03;3.83;;;;;;;26.62;45.56;99432.05;1695014;84;22082;-72
2022/08/30 10:33:33;;;;;;;5.12;3.25;;;;;;;26.72;45.26;99426.56;1715545;83;21052;-72
2022/08/30 10:36:03;;;;;;;3.58;3.10;;;;;;;26.81;45.31;99426.04;1751937;81;21206;-72
2022/08/30 10:38:37;;;;;;;5.10;3.55;;;;;;;26.87;45.10;99430.71;1698039;81;20890;-72
2022/08/30 10:41:25;;;;;;;7.75;3.17;;;;;;;26.88;44.53;99425.70;1751529;81;20981;-72
2022/08/30 10:44:08;;;;;;;3.87;3.20;;;;;;;26.84;43.81;99422.54;1751651;81;21024;-73
2022/08/30 10:46:50;;;;;;;;;;;;;;;26.75;44.41;99421.73;1752946;81;21000;-71
2022/08/30 10:49:28;;;;;;;5.37;3.08;;;;;;;26.76;44.74;99417.23;1748375;81;21387;-72
2022/08/30 10:52:16;;;;;;;7.08;3.33;;;;;;;26.82;43.76;99417.87;1743371;82;21019;-71
2022/08/30 10:54:50;;;;;;;6.53;3.25;;;;;;;26.83;43.53;99427.55;1743119;82;21053;-71
2022/08/30 10:57:20;;;;;;;6.05;3.35;;;;;;;26.80;43.34;99415.86;1743804;81;21051;-72
2022/08/30 11:00:00;;;;;;;6.03;3.95;;;;;;;26.82;43.71;99420.53;1748730;81;21016;-72
2022/08/30 11:02:37;;;;;;;6.85;4.35;;;;;;;26.91;43.67;99419.54;1751532;81;21268;-71
2022/08/30 11:05:33;;;;;;;6.53;3.85;;;;;;;26.95;43.78;99412.90;1746444;81;21433;-73
2022/08/30 11:08:18;;;;;;;6.53;2.92;;;;;;;27.01;43.35;99413.53;1751272;81;20988;-72
2022/08/30 11:11:14;;;;;;;5.83;3.40;;;;;;;27.06;43.09;99415.20;1750690;81;21004;-72
2022/08/30 11:13:44;;;;;;;9.63;2.92;;;;;;;27.08;43.16;99411.86;1751261;81;21012;-72
2022/08/30 11:16:17;;;;;;;5.12;3.27;;;;;;;27.12;42.60;99408.35;1748617;81;22738;-70
2022/08/30 11:18:56;;;;;;;4.33;3.20;;;;;;;27.12;42.36;99401.67;1714237;82;21326;-70
2022/08/30 11:21:37;;;;;;;5.37;2.80;;;;;;;27.15;42.41;99402.67;1713087;82;21289;-72
2022/08/30 11:24:24;;;;;;;4.65;2.70;;;;;;;27.18;42.56;99394.83;1742893;81;21022;-71
2022/08/30 11:27:03;;;;;;;3.45;2.80;;;;;;;27.19;42.10;99395.12;1743094;82;21049;-72
2022/08/30 11:29:42;;;;;;;6.17;3.17;;;;;;;27.17;42.00;99387.32;1739088;82;21369;-71
2022/08/30 11:32:23;;;;;;;10.03;2.90;;;;;;;27.17;42.38;99386.48;1740619;81;20996;-72
2022/08/30 11:34:56;;;;;;;6.22;3.33;;;;;;;27.19;41.83;99391.13;1747060;81;21055;-71
2022/08/30 11:37:40;;;;;;;4.45;3.10;;;;;;;27.22;41.91;99402.80;1751099;81;21024;-71
2022/08/30 11:40:25;;;;;;;6.55;3.02;;;;;;;27.26;42.05;99390.28;1717308;82;21519;-71
2022/08/30 11:42:53;;;;;;;3.45;3.00;;;;;;;27.26;41.37;99383.60;1735109;82;21236;-71
2022/08/30 11:45:34;;;;;;;6.40;3.10;;;;;;;27.24;41.38;99377.59;1736039;82;21033;-73
2022/08/30 11:48:04;;;;;;;7.20;3.00;;;;;;;27.26;41.89;99380.94;1741341;81;21085;-70
2022/08/30 11:50:55;;;;;;;8.95;3.37;;;;;;;27.25;41.14;99378.43;1747098;81;21037;-71
2022/08/30 11:53:32;;;;;;;4.50;3.20;;;;;;;27.20;41.37;99374.10;1737094;81;21080;-73
2022/08/30 11:56:12;;;;;;;3.90;3.10;;;;;;;27.18;41.55;99374.27;1741394;81;21075;-70
2022/08/30 11:58:56;;;;;;;6.22;3.02;;;;;;;27.18;41.09;99375.61;1744151;81;21160;-71
2022/08/30 12:01:32;;;;;;;4.97;3.30;;;;;;;27.17;41.18;99372.64;1753420;81;21488;-71
2022/08/30 12:04:19;;;;;;;5.53;3.08;;;;;;;27.21;41.46;99371.27;1756700;81;21104;-71
2022/08/30 12:06:58;;;;;;;6.15;3.00;;;;;;;27.23;41.07;99371.92;1730973;81;21063;-71
2022/08/30 12:09:31;;;;;;;3.42;3.12;;;;;;;27.21;40.55;99369.09;1756036;81;21122;-70
2022/08/30 12:12:31;;;;;;;4.37;2.90;;;;;;;27.18;41.09;99368.93;1749296;81;21493;-70
2022/08/30 12:14:59;;;;;;;4.20;2.90;;;;;;;27.17;41.14;99372.64;1745742;81;20987;-71
2022/08/30 12:20:46;;;;;;;7.53;4.22;;;;;;;27.19;41.41;99367.92;1689140;81;21042;-71
2022/08/30 12:23:37;;;;;;;8.85;2.90;;;;;;;27.23;41.75;99355.07;1742703;81;21227;-72